createdAt,value
2022-07-30T00:00:32.491Z,51.50
2022-07-30T00:03:00.076Z,51.70
2022-07-30T00:05:29.992Z,51.60
2022-07-30T00:07:57.112Z,51.70
2022-07-30T00:10:24.869Z,51.80
2022-07-30T00:12:54.349Z,51.80
2022-07-30T00:15:21.548Z,52.10
2022-07-30T00:17:49.390Z,51.90
2022-07-30T00:20:18.574Z,51.90
2022-07-30T00:22:45.645Z,51.90
2022-07-30T00:25:17.778Z,52.00
2022-07-30T00:27:45.354Z,52.00
2022-07-30T00:30:13.495Z,52.10
2022-07-30T00:32:43.384Z,52.10
2022-07-30T00:35:12.803Z,52.10
2022-07-30T00:37:40.266Z,52.10
2022-07-30T00:40:10.189Z,52.40
2022-07-30T00:42:45.425Z,52.20
2022-07-30T00:45:16.218Z,52.20
2022-07-30T00:47:48.664Z,52.20
2022-07-30T00:50:17.185Z,52.50
2022-07-30T00:52:49.606Z,52.30
2022-07-30T00:55:16.455Z,52.50
2022-07-30T00:57:44.229Z,52.40
2022-07-30T01:00:16.484Z,52.50
2022-07-30T01:02:45.731Z,52.60
2022-07-30T01:05:13.391Z,52.50
2022-07-30T01:07:40.478Z,52.50
2022-07-30T01:10:12.888Z,52.60
2022-07-30T01:12:40.520Z,52.60
2022-07-30T01:15:11.544Z,52.50
2022-07-30T01:17:41.615Z,52.60
2022-07-30T01:21:00.181Z,53.20
2022-07-30T01:23:47.775Z,53.10
2022-07-30T01:26:21.087Z,53.00
2022-07-30T01:28:53.330Z,52.80
2022-07-30T01:31:25.142Z,52.90
2022-07-30T01:34:02.986Z,52.80
2022-07-30T01:36:32.664Z,53.00
2022-07-30T01:39:01.588Z,52.80
2022-07-30T01:41:37.026Z,52.80
2022-07-30T01:44:06.353Z,53.10
2022-07-30T01:46:37.198Z,53.00
2022-07-30T01:49:08.329Z,53.20
2022-07-30T01:51:39.434Z,53.10
2022-07-30T01:54:14.500Z,53.40
2022-07-30T01:56:44.379Z,53.50
2022-07-30T01:59:13.856Z,53.30
2022-07-30T02:01:40.749Z,53.40
2022-07-30T02:04:10.192Z,53.40
2022-07-30T02:06:52.648Z,53.50
2022-07-30T02:09:31.207Z,54.00
2022-07-30T02:12:21.151Z,53.80
2022-07-30T02:15:00.352Z,53.80
2022-07-30T02:17:39.682Z,53.80
2022-07-30T02:20:13.429Z,53.80
2022-07-30T02:22:47.048Z,53.90
2022-07-30T02:25:23.093Z,53.90
2022-07-30T02:27:59.772Z,54.80
2022-07-30T02:30:36.444Z,54.10
2022-07-30T02:33:12.994Z,54.10
2022-07-30T02:35:41.245Z,54.10
2022-07-30T02:38:17.624Z,54.10
2022-07-30T02:40:45.796Z,54.40
2022-07-30T02:43:21.425Z,54.10
2022-07-30T02:45:49.116Z,54.30
2022-07-30T02:48:34.513Z,54.20
2022-07-30T02:51:10.385Z,54.30
2022-07-30T02:53:39.124Z,54.50
2022-07-30T02:56:09.359Z,54.20
2022-07-30T02:58:39.078Z,54.30
2022-07-30T03:01:09.895Z,54.30
2022-07-30T03:03:46.125Z,54.40
2022-07-30T03:06:18.436Z,54.40
2022-07-30T03:08:47.989Z,54.50
2022-07-30T03:11:20.806Z,54.50
2022-07-30T03:13:53.051Z,54.70
2022-07-30T03:16:25.366Z,54.50
2022-07-30T03:18:59.795Z,54.50
2022-07-30T03:21:31.929Z,54.50
2022-07-30T03:24:03.318Z,54.60
2022-07-30T03:26:31.307Z,54.70
2022-07-30T03:29:00.089Z,54.60
2022-07-30T03:31:28.526Z,54.50
2022-07-30T03:34:09.914Z,54.60
2022-07-30T03:36:41.564Z,54.70
2022-07-30T03:39:12.009Z,54.70
2022-07-30T03:41:40.274Z,54.90
2022-07-30T03:44:12.924Z,54.70
2022-07-30T03:46:43.513Z,54.90
2022-07-30T03:49:16.067Z,54.80
2022-07-30T03:51:44.160Z,54.90
2022-07-30T03:54:17.517Z,54.90
2022-07-30T03:56:44.670Z,54.90
2022-07-30T03:59:16.334Z,54.70
2022-07-30T04:01:43.249Z,54.90
2022-07-30T04:04:14.579Z,54.70
2022-07-30T04:06:42.839Z,54.80
2022-07-30T04:09:15.691Z,55.00
2022-07-30T04:11:45.179Z,55.30
2022-07-30T04:14:12.140Z,55.10
2022-07-30T04:16:54.760Z,55.00
2022-07-30T04:19:57.643Z,55.20
2022-07-30T04:22:34.920Z,55.60
2022-07-30T04:25:07.907Z,55.10
2022-07-30T04:28:03.050Z,55.20
2022-07-30T04:30:29.813Z,55.40
2022-07-30T04:32:56.768Z,55.20
2022-07-30T04:35:50.316Z,55.20
2022-07-30T04:38:20.093Z,55.40
2022-07-30T04:40:47.977Z,55.30
2022-07-30T04:43:20.011Z,55.50
2022-07-30T04:45:46.804Z,55.50
2022-07-30T04:48:15.861Z,55.60
2022-07-30T04:50:47.137Z,55.80
2022-07-30T04:53:19.553Z,55.80
2022-07-30T04:55:49.233Z,55.80
2022-07-30T04:58:21.803Z,55.90
2022-07-30T05:00:52.608Z,56.20
2022-07-30T05:03:23.846Z,55.80
2022-07-30T05:05:56.758Z,55.60
2022-07-30T05:08:25.596Z,55.60
2022-07-30T05:10:57.346Z,55.80
2022-07-30T05:13:34.122Z,55.90
2022-07-30T05:16:01.769Z,56.00
2022-07-30T05:18:31.171Z,56.10
2022-07-30T05:20:59.979Z,56.10
2022-07-30T05:23:28.850Z,56.20
2022-07-30T05:26:00.259Z,56.10
2022-07-30T05:28:29.573Z,56.10
2022-07-30T05:30:58.981Z,56.50
2022-07-30T05:33:42.496Z,56.40
2022-07-30T05:36:12.019Z,56.40
2022-07-30T05:38:41.415Z,56.30
2022-07-30T05:41:19.192Z,56.30
2022-07-30T05:44:02.085Z,57.00
2022-07-30T05:46:31.151Z,56.20
2022-07-30T05:48:58.302Z,56.20
2022-07-30T05:51:30.841Z,56.30
2022-07-30T05:53:57.625Z,56.40
2022-07-30T05:56:26.712Z,56.50
2022-07-30T05:58:56.042Z,56.50
2022-07-30T06:01:22.994Z,56.60
2022-07-30T06:03:49.814Z,56.70
2022-07-30T06:06:22.933Z,56.60
2022-07-30T06:08:52.760Z,56.90
2022-07-30T06:11:22.068Z,56.70
2022-07-30T06:13:48.809Z,56.90
2022-07-30T06:16:17.888Z,56.80
2022-07-30T06:18:47.159Z,57.00
2022-07-30T06:21:16.594Z,57.00
2022-07-30T06:23:43.479Z,56.90
2022-07-30T06:26:12.349Z,56.70
2022-07-30T06:28:39.775Z,56.90
2022-07-30T06:31:10.366Z,56.90
2022-07-30T06:33:37.313Z,56.90
2022-07-30T06:36:13.723Z,56.90
2022-07-30T06:38:48.089Z,57.00
2022-07-30T06:41:17.239Z,57.00
2022-07-30T06:43:44.247Z,56.90
2022-07-30T06:46:13.614Z,56.80
2022-07-30T06:48:42.252Z,56.80
2022-07-30T06:51:09.182Z,56.70
2022-07-30T06:53:42.373Z,56.60
2022-07-30T06:56:11.683Z,56.60
2022-07-30T06:58:41.395Z,56.60
2022-07-30T07:01:11.208Z,56.50
2022-07-30T07:03:39.854Z,56.40
2022-07-30T07:06:09.881Z,56.40
2022-07-30T07:08:40.122Z,56.30
2022-07-30T07:11:09.360Z,56.20
2022-07-30T07:13:40.955Z,56.20
2022-07-30T07:16:07.898Z,56.10
2022-07-30T07:18:34.751Z,56.00
2022-07-30T07:21:03.899Z,55.80
2022-07-30T07:23:39.864Z,55.80
2022-07-30T07:26:09.761Z,55.60
2022-07-30T07:28:40.124Z,55.60
2022-07-30T07:31:11.285Z,55.50
2022-07-30T07:34:00.244Z,55.40
2022-07-30T07:36:27.375Z,55.10
2022-07-30T07:38:54.251Z,55.00
2022-07-30T07:41:26.394Z,55.00
2022-07-30T07:43:53.173Z,54.70
2022-07-30T07:46:33.678Z,54.70
2022-07-30T07:49:01.585Z,54.70
2022-07-30T07:51:46.810Z,54.70
2022-07-30T07:54:22.618Z,54.40
2022-07-30T07:56:52.845Z,54.50
2022-07-30T07:59:27.086Z,54.20
2022-07-30T08:02:05.834Z,53.70
2022-07-30T08:04:37.107Z,53.50
2022-07-30T08:07:06.943Z,54.00
2022-07-30T08:09:44.763Z,53.20
2022-07-30T08:12:19.729Z,52.90
2022-07-30T08:14:48.718Z,52.70
2022-07-30T08:17:15.676Z,52.70
2022-07-30T08:19:47.294Z,52.70
2022-07-30T08:22:16.632Z,52.50
2022-07-30T08:24:46.052Z,52.40
2022-07-30T08:27:12.817Z,52.40
2022-07-30T08:29:39.663Z,52.20
2022-07-30T08:32:08.956Z,51.90
2022-07-30T08:34:35.725Z,51.70
2022-07-30T08:37:02.831Z,51.70
2022-07-30T08:39:34.232Z,51.50
2022-07-30T08:42:06.671Z,51.40
2022-07-30T08:44:37.602Z,50.70
2022-07-30T08:47:16.073Z,50.60
2022-07-30T08:49:46.070Z,50.20
2022-07-30T08:52:13.087Z,50.10
2022-07-30T08:54:42.342Z,49.90
2022-07-30T08:57:13.089Z,49.60
2022-07-30T08:59:59.907Z,49.70
2022-07-30T09:02:32.208Z,49.50
2022-07-30T09:04:59.222Z,48.80
2022-07-30T09:07:26.412Z,48.80
2022-07-30T09:09:55.766Z,48.90
2022-07-30T09:12:45.454Z,48.80
2022-07-30T09:15:17.264Z,47.90
2022-07-30T09:18:00.675Z,47.90
2022-07-30T09:20:38.560Z,47.50
2022-07-30T09:23:10.808Z,47.40
2022-07-30T09:25:54.249Z,47.70
2022-07-30T09:28:34.342Z,47.30
2022-07-30T09:31:03.602Z,47.00
2022-07-30T09:33:47.510Z,47.70
2022-07-30T09:36:21.186Z,47.10
2022-07-30T09:38:56.371Z,47.30
2022-07-30T09:41:41.783Z,47.30
2022-07-30T09:44:08.967Z,47.20
2022-07-30T09:46:51.831Z,47.20
2022-07-30T09:49:41.802Z,46.20
2022-07-30T09:52:29.239Z,46.20
2022-07-30T09:54:59.629Z,46.00
2022-07-30T09:57:27.829Z,46.40
2022-07-30T10:00:18.825Z,46.20
2022-07-30T10:02:52.477Z,45.90
2022-07-30T10:05:20.945Z,45.80
2022-07-30T10:07:59.681Z,45.70
2022-07-30T10:10:33.802Z,45.00
2022-07-30T10:13:04.813Z,45.30
2022-07-30T10:15:36.862Z,45.00
2022-07-30T10:18:06.883Z,44.70
2022-07-30T10:20:37.751Z,44.50
2022-07-30T10:23:09.336Z,44.60
2022-07-30T10:25:49.309Z,44.30
2022-07-30T10:28:22.377Z,44.30
2022-07-30T10:30:55.181Z,44.40
2022-07-30T10:33:36.315Z,43.90
2022-07-30T10:36:13.303Z,44.60
2022-07-30T10:38:52.527Z,43.70
2022-07-30T10:41:48.249Z,43.10
2022-07-30T10:45:06.629Z,42.40
2022-07-30T10:47:42.321Z,42.50
2022-07-30T10:50:26.785Z,42.70
2022-07-30T10:53:01.211Z,41.80
2022-07-30T10:55:39.315Z,41.50
2022-07-30T10:58:12.389Z,40.80
2022-07-30T11:00:56.740Z,40.50
2022-07-30T11:03:41.080Z,40.50
2022-07-30T11:06:16.299Z,40.50
2022-07-30T11:08:48.511Z,40.10
2022-07-30T11:12:04.859Z,40.40
2022-07-30T11:14:10.934Z,39.70
2022-07-30T11:16:42.600Z,40.00
2022-07-30T11:19:55.234Z,39.90
2022-07-30T11:22:22.008Z,39.20
2022-07-30T11:24:52.164Z,39.10
2022-07-30T11:27:45.807Z,39.00
2022-07-30T11:30:24.324Z,38.90
2022-07-30T11:32:57.125Z,37.60
2022-07-30T11:35:35.638Z,38.30
2022-07-30T11:38:19.627Z,38.20
2022-07-30T11:40:49.476Z,38.10
2022-07-30T11:43:36.973Z,38.40
2022-07-30T11:46:31.172Z,37.80
2022-07-30T11:49:05.706Z,38.20
2022-07-30T11:51:47.265Z,36.90
2022-07-30T11:54:14.703Z,36.20
2022-07-30T11:57:04.121Z,36.60
2022-07-30T12:00:00.209Z,36.00
2022-07-30T12:02:30.675Z,36.20
2022-07-30T12:04:58.018Z,36.20
2022-07-30T12:07:25.485Z,35.90
2022-07-30T12:09:54.503Z,35.70
2022-07-30T12:12:24.705Z,35.50
2022-07-30T12:14:57.902Z,35.60
2022-07-30T12:17:46.467Z,35.30
2022-07-30T12:20:19.968Z,34.80
2022-07-30T12:22:47.404Z,33.40
2022-07-30T12:25:17.225Z,33.30
2022-07-30T12:27:52.267Z,33.20
2022-07-30T12:30:23.682Z,32.80
2022-07-30T12:32:55.493Z,33.10
2022-07-30T12:35:22.461Z,32.80
2022-07-30T12:38:05.645Z,33.10
2022-07-30T12:41:10.546Z,32.30
2022-07-30T12:43:59.123Z,32.70
2022-07-30T12:46:28.960Z,32.90
2022-07-30T12:49:18.271Z,32.40
2022-07-30T12:51:59.702Z,31.40
2022-07-30T12:54:29.802Z,31.70
2022-07-30T12:57:03.021Z,31.50
2022-07-30T12:59:38.506Z,31.10
2022-07-30T13:02:07.517Z,30.90
2022-07-30T13:04:39.741Z,30.70
2022-07-30T13:07:10.667Z,30.90
2022-07-30T13:09:40.055Z,30.30
2022-07-30T13:12:12.524Z,30.50
2022-07-30T13:14:41.797Z,30.00
2022-07-30T13:17:10.894Z,30.00
2022-07-30T13:19:38.232Z,30.00
2022-07-30T13:22:08.653Z,30.00
2022-07-30T13:24:40.439Z,29.80
2022-07-30T13:27:07.558Z,29.50
2022-07-30T13:29:34.825Z,29.30
2022-07-30T13:32:01.600Z,29.30
2022-07-30T13:34:30.593Z,29.30
2022-07-30T13:36:57.650Z,28.80
2022-07-30T13:39:24.437Z,28.90
2022-07-30T13:41:51.214Z,28.80
2022-07-30T13:44:20.314Z,29.00
2022-07-30T13:46:51.690Z,28.80
2022-07-30T13:49:20.790Z,28.70
2022-07-30T13:51:47.563Z,28.70
2022-07-30T13:54:18.104Z,28.40
2022-07-30T13:56:45.026Z,28.20
2022-07-30T13:59:13.930Z,27.80
2022-07-30T14:01:40.774Z,27.50
2022-07-30T14:04:08.456Z,27.70
2022-07-30T14:06:35.587Z,27.80
2022-07-30T14:09:02.615Z,27.60
2022-07-30T14:11:30.633Z,27.70
2022-07-30T14:13:57.572Z,27.60
2022-07-30T14:16:44.151Z,27.30
2022-07-30T14:19:22.969Z,27.10
2022-07-30T14:21:52.926Z,26.80
2022-07-30T14:24:21.952Z,26.90
2022-07-30T14:26:56.001Z,26.90
2022-07-30T14:29:29.690Z,26.90
2022-07-30T14:32:00.273Z,27.00
2022-07-30T14:34:29.205Z,27.00
2022-07-30T14:36:56.197Z,27.10
2022-07-30T14:39:25.982Z,26.90
2022-07-30T14:41:55.842Z,27.00
2022-07-30T14:44:25.701Z,27.00
2022-07-30T14:47:01.974Z,27.10
2022-07-30T14:49:29.217Z,27.30
2022-07-30T14:51:56.207Z,27.30
2022-07-30T14:54:23.100Z,27.40
2022-07-30T14:56:58.159Z,27.30
2022-07-30T14:59:29.499Z,27.10
2022-07-30T15:01:56.796Z,26.90
2022-07-30T15:04:23.712Z,26.90
2022-07-30T15:06:55.580Z,27.10
2022-07-30T15:09:27.497Z,26.80
2022-07-30T15:12:10.719Z,26.40
2022-07-30T15:14:41.673Z,26.40
2022-07-30T15:17:13.673Z,26.50
2022-07-30T15:19:50.340Z,26.10
2022-07-30T15:22:19.554Z,26.00
2022-07-30T15:24:46.407Z,25.70
2022-07-30T15:27:15.974Z,25.70
2022-07-30T15:29:47.736Z,25.60
2022-07-30T15:32:16.283Z,25.60
2022-07-30T15:34:46.655Z,25.40
2022-07-30T15:37:13.584Z,25.40
2022-07-30T15:39:47.694Z,25.30
2022-07-30T15:42:14.792Z,25.10
2022-07-30T15:44:48.347Z,24.80
2022-07-30T15:47:16.293Z,24.50
2022-07-30T15:49:45.181Z,24.40
2022-07-30T15:52:15.529Z,24.30
2022-07-30T15:54:44.925Z,24.30
2022-07-30T15:57:16.540Z,24.50
2022-07-30T15:59:43.333Z,24.50
2022-07-30T16:02:11.411Z,24.40
2022-07-30T16:04:38.374Z,24.10
2022-07-30T16:07:07.950Z,24.10
2022-07-30T16:09:34.926Z,24.10
2022-07-30T16:12:04.365Z,24.20
2022-07-30T16:14:31.397Z,24.00
2022-07-30T16:16:58.351Z,23.90
2022-07-30T16:19:28.730Z,23.90
2022-07-30T16:21:55.660Z,23.50
2022-07-30T16:24:24.755Z,23.40
2022-07-30T16:26:51.750Z,23.60
2022-07-30T16:29:19.771Z,23.70
2022-07-30T16:31:47.503Z,23.80
2022-07-30T16:34:15.069Z,23.80
2022-07-30T16:36:42.261Z,23.80
2022-07-30T16:39:09.299Z,23.60
2022-07-30T16:41:36.915Z,23.40
2022-07-30T16:44:04.457Z,23.40
2022-07-30T16:46:37.597Z,23.40
2022-07-30T16:49:10.117Z,23.50
2022-07-30T16:51:39.440Z,23.60
2022-07-30T16:54:07.951Z,24.00
2022-07-30T16:56:36.942Z,23.90
2022-07-30T16:59:03.852Z,23.90
2022-07-30T17:01:39.306Z,24.00
2022-07-30T17:04:06.433Z,24.10
2022-07-30T17:06:33.419Z,24.10
2022-07-30T17:09:02.490Z,24.30
2022-07-30T17:11:46.954Z,24.30
2022-07-30T17:14:19.496Z,24.40
2022-07-30T17:16:46.546Z,24.40
2022-07-30T17:19:14.026Z,24.40
2022-07-30T17:21:41.606Z,24.40
2022-07-30T17:24:13.977Z,24.40
2022-07-30T17:26:43.911Z,24.40
2022-07-30T17:29:14.967Z,24.40
2022-07-30T17:31:45.991Z,24.40
2022-07-30T17:34:20.587Z,24.30
2022-07-30T17:36:52.691Z,24.20
2022-07-30T17:40:22.990Z,24.30
2022-07-30T17:42:16.586Z,24.30
2022-07-30T17:44:53.117Z,24.30
2022-07-30T17:47:22.731Z,24.30
2022-07-30T17:49:51.912Z,24.30
2022-07-30T17:52:21.311Z,24.30
2022-07-30T17:54:52.666Z,24.40
2022-07-30T17:57:21.789Z,24.50
2022-07-30T17:59:50.937Z,24.50
2022-07-30T18:02:20.694Z,24.60
2022-07-30T18:04:56.472Z,24.70
2022-07-30T18:07:31.612Z,24.70
2022-07-30T18:09:58.435Z,24.80
2022-07-30T18:12:27.587Z,24.90
2022-07-30T18:14:57.798Z,25.00
2022-07-30T18:17:24.908Z,25.10
2022-07-30T18:19:56.537Z,25.10
2022-07-30T18:22:29.719Z,25.20
2022-07-30T18:25:02.139Z,25.80
2022-07-30T18:27:31.598Z,25.30
2022-07-30T18:30:00.719Z,25.30
2022-07-30T18:32:29.781Z,25.50
2022-07-30T18:34:57.069Z,25.60
2022-07-30T18:37:23.907Z,25.70
2022-07-30T18:39:50.744Z,25.70
2022-07-30T18:42:19.864Z,25.70
2022-07-30T18:44:49.233Z,25.80
2022-07-30T18:47:18.611Z,25.90
2022-07-30T18:49:50.301Z,26.10
2022-07-30T18:52:19.538Z,26.10
2022-07-30T18:54:53.608Z,26.10
2022-07-30T18:57:22.719Z,26.40
2022-07-30T18:59:51.821Z,26.30
2022-07-30T19:02:25.473Z,26.30
2022-07-30T19:04:58.534Z,26.40
2022-07-30T19:07:28.209Z,26.50
2022-07-30T19:09:55.719Z,26.50
2022-07-30T19:12:28.517Z,26.50
2022-07-30T19:14:55.737Z,26.60
2022-07-30T19:17:22.536Z,26.60
2022-07-30T19:20:10.087Z,26.70
2022-07-30T19:22:40.473Z,26.70
2022-07-30T19:25:10.865Z,26.80
2022-07-30T19:27:40.266Z,26.90
2022-07-30T19:30:10.119Z,27.00
2022-07-30T19:32:37.017Z,27.00
2022-07-30T19:35:13.264Z,27.10
2022-07-30T19:37:41.549Z,27.20
2022-07-30T19:40:12.768Z,27.20
2022-07-30T19:42:42.249Z,27.30
2022-07-30T19:45:15.333Z,27.40
2022-07-30T19:47:44.801Z,27.40
2022-07-30T19:50:17.689Z,27.40
2022-07-30T19:52:51.514Z,27.50
2022-07-30T19:55:30.816Z,27.60
2022-07-30T20:00:57.488Z,27.60
2022-07-30T20:03:25.665Z,27.70
2022-07-30T20:05:57.112Z,27.80
2022-07-30T20:08:28.481Z,28.00
2022-07-30T20:11:01.367Z,28.10
2022-07-30T20:13:44.826Z,28.30
2022-07-30T20:16:16.250Z,28.50
2022-07-30T20:18:48.440Z,28.50
2022-07-30T20:21:55.917Z,28.60
2022-07-30T20:24:09.940Z,28.60
2022-07-30T20:26:37.444Z,28.50
2022-07-30T20:29:09.168Z,28.60
2022-07-30T20:31:46.841Z,28.70
2022-07-30T20:34:19.452Z,28.80
2022-07-30T20:36:49.614Z,28.90
2022-07-30T20:39:19.790Z,28.80
2022-07-30T20:41:46.997Z,29.00
2022-07-30T20:44:23.680Z,29.10
2022-07-30T20:46:52.778Z,29.10
2022-07-30T20:49:24.128Z,29.10
2022-07-30T20:52:03.792Z,29.20
2022-07-30T20:54:31.332Z,29.20
2022-07-30T20:57:00.449Z,29.20
2022-07-30T20:59:29.130Z,29.30
2022-07-30T21:01:57.692Z,29.40
2022-07-30T21:04:26.898Z,29.40
2022-07-30T21:06:56.452Z,29.50
2022-07-30T21:09:29.402Z,29.60
2022-07-30T21:12:16.440Z,29.60
2022-07-30T21:14:44.972Z,29.60
2022-07-30T21:17:16.117Z,29.70
2022-07-30T21:19:47.830Z,29.70
2022-07-30T21:22:17.657Z,29.80
2022-07-30T21:24:47.160Z,29.80
2022-07-30T21:27:14.945Z,30.00
2022-07-30T21:29:42.682Z,29.80
2022-07-30T21:32:11.956Z,29.90
2022-07-30T21:34:42.109Z,30.00
2022-07-30T21:37:15.493Z,30.00
2022-07-30T21:39:45.199Z,30.00
2022-07-30T21:42:12.582Z,30.00
2022-07-30T21:44:41.012Z,30.00
2022-07-30T21:47:10.884Z,30.00
2022-07-30T21:49:44.976Z,30.20
2022-07-30T21:52:11.909Z,30.20
2022-07-30T21:54:47.982Z,30.20
2022-07-30T21:57:26.221Z,30.40
2022-07-30T21:59:55.084Z,30.30
2022-07-30T22:02:23.851Z,30.30
2022-07-30T22:04:52.205Z,30.40
2022-07-30T22:07:21.808Z,30.50
2022-07-30T22:09:49.404Z,30.50
2022-07-30T22:12:18.310Z,30.70
2022-07-30T22:14:49.533Z,30.70
2022-07-30T22:17:23.564Z,30.70
2022-07-30T22:19:59.930Z,30.70
2022-07-30T22:22:29.440Z,30.80
2022-07-30T22:25:06.903Z,30.80
2022-07-30T22:27:55.949Z,31.50
2022-07-30T22:30:30.463Z,31.00
2022-07-30T22:33:17.463Z,31.00
2022-07-30T22:35:49.780Z,31.40
2022-07-30T22:38:19.382Z,31.00
2022-07-30T22:40:47.427Z,31.00
2022-07-30T22:43:16.341Z,31.20
2022-07-30T22:45:49.174Z,31.20
2022-07-30T22:48:26.447Z,31.30
2022-07-30T22:50:57.285Z,31.60
2022-07-30T22:54:10.981Z,31.50
2022-07-30T22:56:15.398Z,31.60
2022-07-30T22:58:48.581Z,31.60
2022-07-30T23:01:20.711Z,31.70
2022-07-30T23:03:52.439Z,32.00
2022-07-30T23:06:20.826Z,31.90
2022-07-30T23:08:48.251Z,32.00
2022-07-30T23:11:17.810Z,32.20
2022-07-30T23:12:15.502Z,27.70
2022-07-30T23:13:54.139Z,32.30
2022-07-30T23:16:22.395Z,32.30
2022-07-30T23:18:52.570Z,32.60
2022-07-30T23:21:24.860Z,32.60
2022-07-30T23:23:56.626Z,32.70
2022-07-30T23:26:23.586Z,32.80
2022-07-30T23:28:52.935Z,32.90
2022-07-30T23:31:25.203Z,33.00
2022-07-30T23:33:53.737Z,33.10
2022-07-30T23:36:20.831Z,33.20
2022-07-30T23:38:49.878Z,33.20
2022-07-30T23:41:29.635Z,33.20
2022-07-30T23:44:00.966Z,33.30
2022-07-30T23:46:27.917Z,33.30
2022-07-30T23:48:54.802Z,33.40
2022-07-30T23:51:25.661Z,33.50
2022-07-30T23:54:01.115Z,33.50
2022-07-30T23:56:28.069Z,33.50
2022-07-30T23:58:55.202Z,33.60
